createdAt,value
2015-12-13T00:00:09.529Z,7.8
2015-12-13T00:01:09.469Z,7.8
2015-12-13T00:02:09.425Z,7.9
2015-12-13T00:03:09.366Z,7.9
2015-12-13T00:04:09.306Z,7.8
2015-12-13T00:05:09.261Z,7.9
2015-12-13T00:06:09.202Z,8
2015-12-13T00:07:09.142Z,8
2015-12-13T00:08:09.098Z,8
2015-12-13T00:09:09.038Z,8.1
2015-12-13T00:10:08.978Z,8.1
2015-12-13T00:11:08.919Z,8.2
2015-12-13T00:12:08.874Z,8.2
2015-12-13T00:13:08.815Z,8.2
2015-12-13T00:14:08.756Z,8.2
2015-12-13T00:15:08.711Z,8.3
2015-12-13T00:16:08.651Z,8.3
2015-12-13T00:17:08.592Z,8.4
2015-12-13T00:18:08.548Z,8.3
2015-12-13T00:19:08.488Z,8.3
2015-12-13T00:20:08.428Z,8.3
2015-12-13T00:21:08.366Z,8.4
2015-12-13T00:22:08.322Z,8.4
2015-12-13T00:23:08.261Z,8.5
2015-12-13T00:24:08.217Z,8.6
2015-12-13T00:25:08.157Z,8.6
2015-12-13T00:26:08.098Z,8.6
2015-12-13T00:27:08.054Z,8.6
2015-12-13T00:28:07.994Z,8.6
2015-12-13T00:29:07.934Z,8.7
2015-12-13T00:30:07.874Z,8.7
2015-12-13T00:31:07.830Z,8.8
2015-12-13T00:32:07.771Z,8.8
2015-12-13T00:33:07.726Z,8.8
2015-12-13T00:34:07.666Z,8.8
2015-12-13T00:35:07.608Z,8.8
2015-12-13T00:36:07.547Z,8.8
2015-12-13T00:37:07.504Z,8.8
2015-12-13T00:38:07.444Z,8.8
2015-12-13T00:39:07.384Z,8.8
2015-12-13T00:40:07.340Z,8.7
2015-12-13T00:41:07.279Z,8.7
2015-12-13T00:42:07.221Z,8.8
2015-12-13T00:43:07.176Z,8.7
2015-12-13T00:44:07.116Z,8.7
2015-12-13T00:45:07.056Z,8.8
2015-12-13T00:46:07.012Z,8.8
2015-12-13T00:47:06.951Z,8.8
2015-12-13T00:48:06.893Z,8.8
2015-12-13T00:49:06.832Z,8.8
2015-12-13T00:50:06.789Z,8.9
2015-12-13T00:51:06.729Z,8.8
2015-12-13T00:52:06.685Z,8.8
2015-12-13T00:53:06.625Z,8.9
2015-12-13T00:54:06.565Z,8.9
2015-12-13T00:55:06.521Z,8.9
2015-12-13T00:56:06.462Z,9
2015-12-13T00:57:06.401Z,8.9
2015-12-13T00:58:06.342Z,9
2015-12-13T00:59:06.298Z,9
2015-12-13T01:00:06.237Z,9.1
2015-12-13T01:01:06.195Z,9.1
2015-12-13T01:02:06.134Z,9.1
2015-12-13T01:03:06.076Z,9.2
2015-12-13T01:04:06.031Z,9.2
2015-12-13T01:05:05.971Z,9.2
2015-12-13T01:06:05.926Z,9.3
2015-12-13T01:07:05.867Z,9.3
2015-12-13T01:08:05.804Z,9.3
2015-12-13T01:09:05.745Z,9.4
2015-12-13T01:10:05.700Z,9.4
2015-12-13T01:11:05.640Z,9.4
2015-12-13T01:12:05.581Z,9.4
2015-12-13T01:13:05.536Z,9.5
2015-12-13T01:14:05.477Z,9.5
2015-12-13T01:15:05.417Z,9.4
2015-12-13T01:16:05.373Z,9.4
2015-12-13T01:17:05.313Z,9.4
2015-12-13T01:18:05.254Z,9.4
2015-12-13T01:19:05.194Z,9.4
2015-12-13T01:20:05.150Z,9.5
2015-12-13T01:21:05.101Z,9.4
2015-12-13T01:22:33.326Z,9.5
2015-12-13T01:23:04.998Z,9.4
2015-12-13T01:24:04.939Z,9.4
2015-12-13T01:25:04.879Z,9.5
2015-12-13T01:26:04.835Z,9.5
2015-12-13T01:27:04.774Z,9.5
2015-12-13T01:28:04.715Z,9.6
2015-12-13T01:29:04.655Z,9.6
2015-12-13T01:30:04.611Z,9.5
2015-12-13T01:31:04.551Z,9.6
2015-12-13T01:32:04.491Z,9.6
2015-12-13T01:33:04.448Z,9.7
2015-12-13T01:34:04.388Z,9.7
2015-12-13T01:35:04.328Z,9.7
2015-12-13T01:36:04.268Z,9.7
2015-12-13T01:37:04.224Z,9.6
2015-12-13T01:38:04.164Z,9.7
2015-12-13T01:39:04.105Z,9.9
2015-12-13T01:40:04.061Z,9.9
2015-12-13T01:41:04.001Z,9.9
2015-12-13T01:42:03.957Z,9.9
2015-12-13T01:43:03.897Z,9.9
2015-12-13T01:44:03.837Z,9.9
2015-12-13T01:45:03.774Z,10
2015-12-13T01:46:03.731Z,10
2015-12-13T01:47:03.671Z,10.1
2015-12-13T01:48:03.627Z,10.1
2015-12-13T01:49:03.567Z,10.1
2015-12-13T01:50:03.507Z,10.1
2015-12-13T01:51:03.448Z,10.1
2015-12-13T01:52:03.403Z,10.1
2015-12-13T01:53:03.343Z,10.1
2015-12-13T01:54:03.284Z,10.1
2015-12-13T01:55:03.240Z,10.1
2015-12-13T01:56:03.179Z,10.1
2015-12-13T01:57:03.120Z,10.1
2015-12-13T01:58:03.076Z,10.1
2015-12-13T01:59:03.016Z,10.1
2015-12-13T02:00:02.956Z,10.1
2015-12-13T02:01:02.912Z,10.1
2015-12-13T02:02:02.853Z,10.1
2015-12-13T02:03:02.793Z,10.1
2015-12-13T02:04:02.748Z,10.1
2015-12-13T02:05:02.689Z,10.1
2015-12-13T02:06:02.629Z,10.1
2015-12-13T02:07:02.570Z,10.1
2015-12-13T02:08:02.526Z,10.1
2015-12-13T02:09:02.465Z,10.1
2015-12-13T02:10:02.405Z,10.1
2015-12-13T02:11:02.362Z,10.1
2015-12-13T02:12:02.317Z,10.2
2015-12-13T02:13:02.242Z,10.1
2015-12-13T02:14:02.198Z,10.1
2015-12-13T02:15:02.138Z,10.1
2015-12-13T02:16:02.094Z,10
2015-12-13T02:17:02.034Z,10
2015-12-13T02:18:01.975Z,10
2015-12-13T02:19:01.931Z,10
2015-12-13T02:20:01.870Z,10
2015-12-13T02:21:01.812Z,10
2015-12-13T02:22:01.767Z,10
2015-12-13T02:23:01.708Z,10
2015-12-13T02:24:01.648Z,10
2015-12-13T02:25:01.604Z,10
2015-12-13T02:26:01.544Z,10
2015-12-13T02:27:01.481Z,10.1
2015-12-13T02:28:01.437Z,10.1
2015-12-13T02:29:01.378Z,10.1
2015-12-13T02:30:01.334Z,10.1
2015-12-13T02:31:01.273Z,10.1
2015-12-13T02:32:01.230Z,10
2015-12-13T02:33:01.169Z,10
2015-12-13T02:34:01.110Z,10
2015-12-13T02:35:01.050Z,10
2015-12-13T02:36:01.005Z,9.9
2015-12-13T02:37:00.947Z,10
2015-12-13T02:38:00.886Z,10
2015-12-13T02:39:00.842Z,10.1
2015-12-13T02:40:00.783Z,10.1
2015-12-13T02:41:00.738Z,10.1
2015-12-13T02:42:00.678Z,10.1
2015-12-13T02:43:00.636Z,10.1
2015-12-13T02:44:00.575Z,10.1
2015-12-13T02:45:00.516Z,10.3
2015-12-13T02:46:00.455Z,10.4
2015-12-13T02:47:00.411Z,10.4
2015-12-13T02:48:00.352Z,10.3
2015-12-13T02:49:00.292Z,10.3
2015-12-13T02:50:00.247Z,10.3
2015-12-13T02:51:00.188Z,10.3
2015-12-13T02:52:00.128Z,10.3
2015-12-13T02:53:00.084Z,10.2
2015-12-13T02:54:00.025Z,10.3
2015-12-13T02:54:59.981Z,10.2
2015-12-13T02:55:59.921Z,10.3
2015-12-13T02:56:59.861Z,10.3
2015-12-13T02:57:59.817Z,10.3
2015-12-13T02:58:59.757Z,10.4
2015-12-13T02:59:59.697Z,10.4
2015-12-13T03:00:59.653Z,10.4
2015-12-13T03:01:59.594Z,10.4
2015-12-13T03:02:59.533Z,10.4
2015-12-13T03:03:59.489Z,10.4
2015-12-13T03:04:59.430Z,10.4
2015-12-13T03:05:59.383Z,10.3
2015-12-13T03:06:59.324Z,10.3
2015-12-13T03:07:59.263Z,10.3
2015-12-13T03:08:59.219Z,10.3
2015-12-13T03:09:59.159Z,10.3
2015-12-13T03:10:59.115Z,10.3
2015-12-13T03:11:59.055Z,10.3
2015-12-13T03:12:59.104Z,10.3
2015-12-13T03:13:58.935Z,10.3
2015-12-13T03:14:58.891Z,10.3
2015-12-13T03:15:58.848Z,10.4
2015-12-13T03:16:58.772Z,10.3
2015-12-13T03:17:58.729Z,10.3
2015-12-13T03:18:58.668Z,10.3
2015-12-13T03:19:58.625Z,10.2
2015-12-13T03:20:58.565Z,10.2
2015-12-13T03:21:58.505Z,10.2
2015-12-13T03:22:58.461Z,10.2
2015-12-13T03:23:58.401Z,10.3
2015-12-13T03:24:58.357Z,10.3
2015-12-13T03:25:58.297Z,10.2
2015-12-13T03:26:58.238Z,10.3
2015-12-13T03:27:58.177Z,10.3
2015-12-13T03:28:58.134Z,10.3
2015-12-13T03:29:58.074Z,10.3
2015-12-13T03:30:58.029Z,10.3
2015-12-13T03:31:57.970Z,10.3
2015-12-13T03:32:57.911Z,10.3
2015-12-13T03:33:57.866Z,10.4
2015-12-13T03:34:57.806Z,10.4
2015-12-13T03:35:57.763Z,10.4
2015-12-13T03:36:57.702Z,10.3
2015-12-13T03:37:57.643Z,10.3
2015-12-13T03:38:57.598Z,10.2
2015-12-13T03:39:57.540Z,10.2
2015-12-13T03:40:57.480Z,10.2
2015-12-13T03:41:57.435Z,10.2
2015-12-13T03:42:57.376Z,10.2
2015-12-13T03:43:57.315Z,10.3
2015-12-13T03:44:57.272Z,10.3
2015-12-13T03:45:57.210Z,10.3
2015-12-13T03:46:57.165Z,10.3
2015-12-13T03:47:57.105Z,10.2
2015-12-13T03:48:57.045Z,10.2
2015-12-13T03:49:57.001Z,10.2
2015-12-13T03:50:56.957Z,10.2
2015-12-13T03:51:56.897Z,10.3
2015-12-13T03:52:56.838Z,10.3
2015-12-13T03:53:56.778Z,10.3
2015-12-13T03:54:56.734Z,10.3
2015-12-13T03:55:56.674Z,10.3
2015-12-13T03:56:56.630Z,10.4
2015-12-13T03:57:56.570Z,10.4
2015-12-13T03:58:56.510Z,10.5
2015-12-13T03:59:56.451Z,10.4
2015-12-13T04:00:56.406Z,10.5
2015-12-13T04:01:56.347Z,10.4
2015-12-13T04:02:56.303Z,10.4
2015-12-13T04:03:56.259Z,10.5
2015-12-13T04:04:56.184Z,10.4
2015-12-13T04:05:56.140Z,10.5
2015-12-13T04:06:56.079Z,10.5
2015-12-13T04:07:56.020Z,10.5
2015-12-13T04:08:55.976Z,10.5
2015-12-13T04:09:55.915Z,10.5
2015-12-13T04:10:55.856Z,10.5
2015-12-13T04:11:55.811Z,10.6
2015-12-13T04:12:55.753Z,10.6
2015-12-13T04:13:55.740Z,10.6
2015-12-13T04:14:55.648Z,10.6
2015-12-13T04:15:55.589Z,10.6
2015-12-13T04:16:55.545Z,10.5
2015-12-13T04:17:55.485Z,10.5
2015-12-13T04:18:55.425Z,10.5
2015-12-13T04:19:55.381Z,10.5
2015-12-13T04:20:55.321Z,10.4
2015-12-13T04:21:55.261Z,10.4
2015-12-13T04:22:55.248Z,10.5
2015-12-13T04:23:55.158Z,10.5
2015-12-13T04:24:55.095Z,10.5
2015-12-13T04:25:55.050Z,10.5
2015-12-13T04:26:54.992Z,10.5
2015-12-13T04:27:54.947Z,10.6
2015-12-13T04:28:54.887Z,10.6
2015-12-13T04:29:54.843Z,10.5
2015-12-13T04:30:54.783Z,10.6
2015-12-13T04:31:54.723Z,10.6
2015-12-13T04:32:54.664Z,10.6
2015-12-13T04:33:54.619Z,10.6
2015-12-13T04:34:54.560Z,10.5
2015-12-13T04:35:54.516Z,10.5
2015-12-13T04:36:54.455Z,10.5
2015-12-13T04:37:54.397Z,10.5
2015-12-13T04:38:54.336Z,10.5
2015-12-13T04:39:54.292Z,10.5
2015-12-13T04:40:54.233Z,10.5
2015-12-13T04:41:54.173Z,10.6
2015-12-13T04:42:54.128Z,10.6
2015-12-13T04:43:54.069Z,10.5
2015-12-13T04:44:54.025Z,10.5
2015-12-13T04:45:53.966Z,10.5
2015-12-13T04:46:53.906Z,10.5
2015-12-13T04:47:53.861Z,10.5
2015-12-13T04:48:53.802Z,10.4
2015-12-13T04:49:53.758Z,10.5
2015-12-13T04:50:53.697Z,10.5
2015-12-13T04:51:53.638Z,10.5
2015-12-13T04:52:53.594Z,10.5
2015-12-13T04:53:53.534Z,10.5
2015-12-13T04:54:53.475Z,10.5
2015-12-13T04:55:53.430Z,10.5
2015-12-13T04:56:53.371Z,10.5
2015-12-13T04:57:53.311Z,10.5
2015-12-13T04:58:53.267Z,10.6
2015-12-13T04:59:53.207Z,10.5
2015-12-13T05:00:53.163Z,10.5
2015-12-13T05:01:53.103Z,10.5
2015-12-13T05:02:53.044Z,10.5
2015-12-13T05:03:52.999Z,10.5
2015-12-13T05:04:52.939Z,10.5
2015-12-13T05:05:52.877Z,10.5
2015-12-13T05:06:52.832Z,10.6
2015-12-13T05:07:52.789Z,10.6
2015-12-13T05:08:52.713Z,10.7
2015-12-13T05:09:52.669Z,10.7
2015-12-13T05:10:52.610Z,10.6
2015-12-13T05:11:52.549Z,10.7
2015-12-13T05:12:52.505Z,10.7
2015-12-13T05:13:52.445Z,10.7
2015-12-13T05:14:52.385Z,10.7
2015-12-13T05:15:52.342Z,10.7
2015-12-13T05:16:52.282Z,10.7
2015-12-13T05:17:52.222Z,10.6
2015-12-13T05:18:52.179Z,10.6
2015-12-13T05:19:52.118Z,10.7
2015-12-13T05:20:52.075Z,10.7
2015-12-13T05:21:52.030Z,10.7
2015-12-13T05:22:51.955Z,10.8
2015-12-13T05:23:51.896Z,10.7
2015-12-13T05:24:51.851Z,10.8
2015-12-13T05:25:51.791Z,10.8
2015-12-13T05:26:51.763Z,10.7
2015-12-13T05:27:51.688Z,10.7
2015-12-13T05:28:51.627Z,10.7
2015-12-13T05:29:51.584Z,10.8
2015-12-13T05:30:51.524Z,10.7
2015-12-13T05:31:51.465Z,10.7
2015-12-13T05:32:51.420Z,10.7
2015-12-13T05:33:51.360Z,10.6
2015-12-13T05:34:51.316Z,10.6
2015-12-13T05:35:51.256Z,10.7
2015-12-13T05:36:51.197Z,10.6
2015-12-13T05:37:51.152Z,10.6
2015-12-13T05:38:51.093Z,10.6
2015-12-13T05:39:51.049Z,10.6
2015-12-13T05:40:50.989Z,10.6
2015-12-13T05:41:50.930Z,10.6
2015-12-13T05:42:50.885Z,10.6
2015-12-13T05:43:50.826Z,10.6
2015-12-13T05:44:50.763Z,10.5
2015-12-13T05:45:50.718Z,10.6
2015-12-13T05:46:50.659Z,10.6
2015-12-13T05:47:50.615Z,10.6
2015-12-13T05:48:50.555Z,10.6
2015-12-13T05:49:50.496Z,10.6
2015-12-13T05:50:50.452Z,10.6
2015-12-13T05:51:50.392Z,10.6
2015-12-13T05:52:50.347Z,10.6
2015-12-13T05:53:50.287Z,10.6
2015-12-13T05:54:50.229Z,10.6
2015-12-13T05:55:50.184Z,10.5
2015-12-13T05:56:50.124Z,10.5
2015-12-13T05:57:50.064Z,10.5
2015-12-13T05:58:50.021Z,10.5
2015-12-13T05:59:49.960Z,10.4
2015-12-13T06:00:49.901Z,10.4
2015-12-13T06:01:49.856Z,10.3
2015-12-13T06:02:49.797Z,10.1
2015-12-13T06:03:49.753Z,10
2015-12-13T06:04:49.693Z,9.9
2015-12-13T06:05:49.634Z,9.8
2015-12-13T06:06:49.573Z,9.8
2015-12-13T06:07:49.529Z,9.7
2015-12-13T06:08:49.470Z,9.6
2015-12-13T06:09:49.409Z,9.6
2015-12-13T06:10:49.366Z,9.5
2015-12-13T06:11:49.306Z,9.4
2015-12-13T06:12:49.246Z,9.3
2015-12-13T06:13:49.187Z,9.3
2015-12-13T06:14:49.143Z,9.2
2015-12-13T06:15:49.083Z,9.2
2015-12-13T06:16:49.023Z,9.2
2015-12-13T06:17:48.978Z,9.1
2015-12-13T06:18:48.920Z,9.1
2015-12-13T06:19:48.859Z,9
2015-12-13T06:20:48.815Z,9
2015-12-13T06:21:48.756Z,9
2015-12-13T06:22:48.712Z,9
2015-12-13T06:23:48.634Z,8.9
2015-12-13T06:24:48.590Z,9
2015-12-13T06:25:48.529Z,8.9
2015-12-13T06:26:48.470Z,9
2015-12-13T06:27:48.410Z,9
2015-12-13T06:28:48.366Z,8.9
2015-12-13T06:29:48.306Z,8.9
2015-12-13T06:30:48.261Z,8.9
2015-12-13T06:31:48.202Z,8.9
2015-12-13T06:32:48.142Z,8.9
2015-12-13T06:33:48.098Z,8.9
2015-12-13T06:34:48.038Z,8.8
2015-12-13T06:35:47.979Z,8.8
2015-12-13T06:36:47.919Z,8.8
2015-12-13T06:37:47.859Z,8.8
2015-12-13T06:38:47.800Z,8.8
2015-12-13T06:39:47.755Z,8.8
2015-12-13T06:40:47.696Z,8.7
2015-12-13T06:41:47.651Z,8.7
2015-12-13T06:42:47.592Z,8.7
2015-12-13T06:43:47.533Z,8.7
2015-12-13T06:44:47.488Z,8.7
2015-12-13T06:45:47.428Z,8.7
2015-12-13T06:46:47.368Z,8.7
2015-12-13T06:47:47.308Z,8.6
2015-12-13T06:48:47.265Z,8.6
2015-12-13T06:49:47.205Z,8.6
2015-12-13T06:50:47.145Z,8.6
2015-12-13T06:51:47.086Z,8.5
2015-12-13T06:52:47.041Z,8.5
2015-12-13T06:53:46.981Z,8.5
2015-12-13T06:54:46.922Z,8.4
2015-12-13T06:55:46.878Z,8.5
2015-12-13T06:56:46.818Z,8.4
2015-12-13T06:57:46.758Z,8.4
2015-12-13T06:58:46.699Z,8.4
2015-12-13T06:59:46.655Z,8.4
2015-12-13T07:00:46.594Z,8.3
2015-12-13T07:01:46.536Z,8.3
2015-12-13T07:02:46.475Z,8.3
2015-12-13T07:03:46.431Z,8.3
2015-12-13T07:04:46.369Z,8.3
2015-12-13T07:05:46.308Z,8.2
2015-12-13T07:06:46.264Z,8.2
2015-12-13T07:07:46.205Z,8.1
2015-12-13T07:08:46.145Z,8.1
2015-12-13T07:09:46.085Z,8
2015-12-13T07:10:46.025Z,8
2015-12-13T07:11:45.982Z,8
2015-12-13T07:12:45.921Z,8
2015-12-13T07:13:45.862Z,8
2015-12-13T07:14:45.802Z,8
2015-12-13T07:15:45.758Z,8
2015-12-13T07:16:45.699Z,8
2015-12-13T07:17:45.638Z,8
2015-12-13T07:18:45.579Z,8
2015-12-13T07:19:45.535Z,7.9
2015-12-13T07:20:45.474Z,7.9
2015-12-13T07:21:45.415Z,7.8
2015-12-13T07:22:45.371Z,7.8
2015-12-13T07:23:45.296Z,7.8
2015-12-13T07:24:45.252Z,7.8
2015-12-13T07:25:45.192Z,7.7
2015-12-13T07:26:45.148Z,7.7
2015-12-13T07:27:45.088Z,7.6
2015-12-13T07:28:45.028Z,7.6
2015-12-13T07:29:44.969Z,7.5
2015-12-13T07:30:44.909Z,7.5
2015-12-13T07:31:44.865Z,7.4
2015-12-13T07:32:44.805Z,7.4
2015-12-13T07:33:44.745Z,7.4
2015-12-13T07:34:44.686Z,7.3
2015-12-13T07:35:44.641Z,7.2
2015-12-13T07:36:44.566Z,7.2
2015-12-13T07:37:44.522Z,7.2
2015-12-13T07:38:44.462Z,7.2
2015-12-13T07:39:44.402Z,7.1
2015-12-13T07:40:44.343Z,7
2015-12-13T07:41:44.282Z,7
2015-12-13T07:42:44.238Z,7
2015-12-13T07:43:44.179Z,7
2015-12-13T07:44:44.116Z,7
2015-12-13T07:45:44.057Z,6.9
2015-12-13T07:46:43.997Z,6.9
2015-12-13T07:47:43.954Z,6.9
2015-12-13T07:48:43.893Z,6.8
2015-12-13T07:49:43.834Z,6.8
2015-12-13T07:50:43.773Z,6.7
2015-12-13T07:51:43.714Z,6.7
2015-12-13T07:52:43.654Z,6.7
2015-12-13T07:53:43.609Z,6.7
2015-12-13T07:54:43.551Z,6.7
2015-12-13T07:55:43.491Z,6.7
2015-12-13T07:56:43.431Z,6.7
2015-12-13T07:57:43.387Z,6.7
2015-12-13T07:58:43.319Z,6.7
2015-12-13T07:59:43.245Z,6.6
2015-12-13T08:00:43.168Z,6.6
2015-12-13T08:01:43.094Z,6.6
2015-12-13T08:02:43.019Z,6.6
2015-12-13T08:03:42.965Z,6.6
2015-12-13T08:04:42.900Z,6.5
2015-12-13T08:05:42.834Z,6.5
2015-12-13T08:06:42.770Z,6.4
2015-12-13T08:07:42.704Z,6.5
2015-12-13T08:08:42.658Z,6.4
2015-12-13T08:09:42.580Z,6.4
2015-12-13T08:10:42.519Z,6.4
2015-12-13T08:11:42.472Z,6.3
2015-12-13T08:12:42.411Z,6.3
2015-12-13T08:13:42.350Z,6.3
2015-12-13T08:14:42.290Z,6.3
2015-12-13T08:15:42.245Z,6.3
2015-12-13T08:16:42.183Z,6.3
2015-12-13T08:17:42.124Z,6.3
2015-12-13T08:18:42.063Z,6.3
2015-12-13T08:19:42.003Z,6.3
2015-12-13T08:20:41.943Z,6.2
2015-12-13T08:21:41.881Z,6.2
2015-12-13T08:22:41.837Z,6.2
2015-12-13T08:23:41.776Z,6.2
2015-12-13T08:24:41.717Z,6.2
2015-12-13T08:25:41.656Z,6.2
2015-12-13T08:26:41.597Z,6.2
2015-12-13T08:27:41.536Z,6.2
2015-12-13T08:28:41.493Z,6.2
2015-12-13T08:29:41.433Z,6.2
2015-12-13T08:30:41.372Z,6.1
2015-12-13T08:31:41.314Z,6.1
2015-12-13T08:32:41.253Z,6.1
2015-12-13T08:33:41.194Z,6.1
2015-12-13T08:34:41.134Z,6.1
2015-12-13T08:35:41.090Z,6.1
2015-12-13T08:36:41.031Z,6.1
2015-12-13T08:37:40.971Z,6.1
2015-12-13T08:38:40.911Z,6.1
2015-12-13T08:39:40.866Z,6.1
2015-12-13T08:40:40.791Z,6.2
2015-12-13T08:41:40.747Z,6.1
2015-12-13T08:42:40.688Z,6.1
2015-12-13T08:43:40.628Z,6.1
2015-12-13T08:44:40.569Z,6
2015-12-13T08:45:40.508Z,6
2015-12-13T08:46:40.464Z,6
2015-12-13T08:47:40.404Z,6.1
2015-12-13T08:48:40.344Z,6.1
2015-12-13T08:49:40.286Z,6.1
2015-12-13T08:50:40.225Z,6.1
2015-12-13T08:51:40.165Z,6.1
2015-12-13T08:52:40.105Z,6.1
2015-12-13T08:53:40.061Z,6.1
2015-12-13T08:54:40.002Z,6.1
2015-12-13T08:55:39.942Z,6
2015-12-13T08:56:39.883Z,6
2015-12-13T08:57:39.823Z,6
2015-12-13T08:58:39.763Z,6
2015-12-13T08:59:39.719Z,6
2015-12-13T09:00:39.660Z,6
2015-12-13T09:01:39.599Z,5.9
2015-12-13T09:02:39.537Z,6
2015-12-13T09:03:39.477Z,6
2015-12-13T09:04:39.417Z,6
2015-12-13T09:05:39.357Z,6
2015-12-13T09:06:39.313Z,5.9
2015-12-13T09:07:39.254Z,5.9
2015-12-13T09:08:39.194Z,6
2015-12-13T09:09:39.134Z,6
2015-12-13T09:10:39.074Z,6
2015-12-13T09:11:39.015Z,5.9
2015-12-13T09:12:38.954Z,5.9
2015-12-13T09:13:38.911Z,5.9
2015-12-13T09:14:38.851Z,5.9
2015-12-13T09:15:38.791Z,5.9
2015-12-13T09:16:38.732Z,5.9
2015-12-13T09:17:38.671Z,5.9
2015-12-13T09:18:38.627Z,6
2015-12-13T09:19:38.568Z,6
2015-12-13T09:20:38.508Z,6
2015-12-13T09:21:38.448Z,6
2015-12-13T09:22:38.388Z,5.9
2015-12-13T09:23:38.328Z,5.9
2015-12-13T09:24:38.269Z,5.9
2015-12-13T09:25:38.225Z,5.9
2015-12-13T09:26:38.166Z,5.9
2015-12-13T09:27:38.106Z,5.9
2015-12-13T09:28:38.046Z,5.9
2015-12-13T09:29:37.987Z,5.9
2015-12-13T09:30:37.927Z,6
2015-12-13T09:31:37.882Z,5.9
2015-12-13T09:32:37.822Z,6
2015-12-13T09:33:37.762Z,6
2015-12-13T09:34:37.718Z,6
2015-12-13T09:35:37.659Z,6
2015-12-13T09:36:37.584Z,5.9
2015-12-13T09:37:37.523Z,6
2015-12-13T09:38:37.479Z,6
2015-12-13T09:39:37.420Z,6
2015-12-13T09:40:37.360Z,6
2015-12-13T09:41:37.301Z,6.1
2015-12-13T09:42:37.241Z,6
2015-12-13T09:43:37.181Z,6
2015-12-13T09:44:37.137Z,6
2015-12-13T09:45:37.074Z,6
2015-12-13T09:46:37.031Z,6
2015-12-13T09:47:36.971Z,6
2015-12-13T09:48:36.911Z,5.9
2015-12-13T09:49:36.851Z,5.9
2015-12-13T09:50:36.791Z,6
2015-12-13T09:51:36.731Z,6
2015-12-13T09:52:36.672Z,6
2015-12-13T09:53:36.628Z,6
2015-12-13T09:54:36.568Z,6
2015-12-13T09:55:36.508Z,6
2015-12-13T09:56:36.448Z,6
2015-12-13T09:57:36.389Z,6
2015-12-13T09:58:36.345Z,6
2015-12-13T09:59:36.270Z,6
2015-12-13T10:00:36.225Z,6
2015-12-13T10:01:36.164Z,6
2015-12-13T10:02:36.106Z,6
2015-12-13T10:03:36.045Z,6
2015-12-13T10:04:35.986Z,6.1
2015-12-13T10:05:35.942Z,6.1
2015-12-13T10:06:35.881Z,6.1
2015-12-13T10:07:35.822Z,6.1
2015-12-13T10:08:35.778Z,6.2
2015-12-13T10:09:35.703Z,6.2
2015-12-13T10:10:35.659Z,6.2
2015-12-13T10:11:35.600Z,6.3
2015-12-13T10:12:35.540Z,6.2
2015-12-13T10:13:35.480Z,6.2
2015-12-13T10:14:35.420Z,6.2
2015-12-13T10:15:35.376Z,6.2
2015-12-13T10:16:35.316Z,6.1
2015-12-13T10:17:35.256Z,6.1
2015-12-13T10:18:35.196Z,6.1
2015-12-13T10:19:35.136Z,6.1
2015-12-13T10:20:35.077Z,6.1
2015-12-13T10:21:35.033Z,6.1
2015-12-13T10:22:34.973Z,6.1
2015-12-13T10:23:34.913Z,6.1
2015-12-13T10:24:34.850Z,6.1
2015-12-13T10:25:34.791Z,6
2015-12-13T10:26:34.731Z,6.1
2015-12-13T10:27:34.687Z,6.1
2015-12-13T10:28:34.628Z,6.1
2015-12-13T10:29:34.567Z,6
2015-12-13T10:30:34.508Z,6.1
2015-12-13T10:31:34.448Z,6.1
2015-12-13T10:32:34.405Z,6.1
2015-12-13T10:33:34.344Z,6.1
2015-12-13T10:34:34.285Z,6.2
2015-12-13T10:35:34.241Z,6.2
2015-12-13T10:36:34.166Z,6.1
2015-12-13T10:37:34.121Z,6.1
2015-12-13T10:38:34.061Z,6.1
2015-12-13T10:39:34.002Z,6.1
2015-12-13T10:40:33.942Z,6.1
2015-12-13T10:41:33.882Z,6.1
2015-12-13T10:42:33.838Z,6.1
2015-12-13T10:43:33.778Z,6.1
2015-12-13T10:44:33.719Z,6.1
2015-12-13T10:45:33.659Z,6.1
2015-12-13T10:46:33.599Z,6.1
2015-12-13T10:47:33.539Z,6.1
2015-12-13T10:48:33.495Z,6.1
2015-12-13T10:49:33.436Z,6.1
2015-12-13T10:50:33.375Z,6
2015-12-13T10:51:33.332Z,6
2015-12-13T10:52:33.256Z,5.9
2015-12-13T10:53:33.197Z,5.9
2015-12-13T10:54:33.152Z,6
2015-12-13T10:55:33.093Z,6
2015-12-13T10:56:33.033Z,6
2015-12-13T10:57:32.989Z,6
2015-12-13T10:58:32.913Z,6
2015-12-13T10:59:32.869Z,6
2015-12-13T11:00:32.810Z,6
2015-12-13T11:01:32.750Z,6
2015-12-13T11:02:32.690Z,5.9
2015-12-13T11:03:32.627Z,5.9
2015-12-13T11:04:32.583Z,5.9
2015-12-13T11:05:32.524Z,5.9
2015-12-13T11:06:32.463Z,5.9
2015-12-13T11:07:32.404Z,5.9
2015-12-13T11:08:32.344Z,5.9
2015-12-13T11:09:32.285Z,5.9
2015-12-13T11:10:32.240Z,5.9
2015-12-13T11:11:32.180Z,6
2015-12-13T11:12:32.121Z,6
2015-12-13T11:13:32.061Z,6
2015-12-13T11:14:32.018Z,6
2015-12-13T11:15:31.941Z,6
2015-12-13T11:16:31.898Z,6.1
2015-12-13T11:17:31.838Z,6.1
2015-12-13T11:18:31.778Z,6.1
2015-12-13T11:19:31.718Z,6.1
2015-12-13T11:20:31.674Z,6.1
2015-12-13T11:21:31.615Z,6.1
2015-12-13T11:22:31.555Z,6.1
2015-12-13T11:23:31.495Z,6.1
2015-12-13T11:24:31.435Z,6.1
2015-12-13T11:25:31.376Z,6
2015-12-13T11:26:31.315Z,6
2015-12-13T11:27:31.271Z,6
2015-12-13T11:28:31.212Z,6
2015-12-13T11:29:31.152Z,6
2015-12-13T11:30:31.092Z,6
2015-12-13T11:31:31.032Z,6
2015-12-13T11:32:30.989Z,5.9
2015-12-13T11:33:30.929Z,5.9
2015-12-13T11:34:30.869Z,6
2015-12-13T11:35:30.809Z,6
2015-12-13T11:36:30.749Z,6
2015-12-13T11:37:30.706Z,6
2015-12-13T11:38:30.630Z,5.9
2015-12-13T11:39:30.586Z,6
2015-12-13T11:40:30.527Z,6
2015-12-13T11:41:30.467Z,6
2015-12-13T11:42:30.404Z,6.1
2015-12-13T11:43:30.359Z,6.1
2015-12-13T11:44:30.300Z,6.1
2015-12-13T11:45:30.240Z,6.1
2015-12-13T11:46:30.181Z,6.1
2015-12-13T11:47:30.121Z,6.1
2015-12-13T11:48:30.061Z,6
2015-12-13T11:49:30.017Z,6
2015-12-13T11:50:29.957Z,6
2015-12-13T11:51:29.897Z,6
2015-12-13T11:52:29.838Z,6
2015-12-13T11:53:29.779Z,6
2015-12-13T11:54:29.734Z,6
2015-12-13T11:55:29.674Z,6
2015-12-13T11:56:29.615Z,6
2015-12-13T11:57:29.554Z,6
2015-12-13T11:58:29.495Z,6.1
2015-12-13T11:59:29.451Z,6
2015-12-13T12:00:29.392Z,5.9
2015-12-13T12:01:29.332Z,6
2015-12-13T12:02:29.272Z,6
2015-12-13T12:03:29.228Z,5.9
2015-12-13T12:04:29.167Z,5.9
2015-12-13T12:05:29.108Z,6
2015-12-13T12:06:29.049Z,6
2015-12-13T12:07:28.989Z,6
2015-12-13T12:08:28.945Z,6
2015-12-13T12:09:28.884Z,5.9
2015-12-13T12:10:28.825Z,5.9
2015-12-13T12:11:28.781Z,6
2015-12-13T12:12:28.706Z,6
2015-12-13T12:13:28.662Z,6.1
2015-12-13T12:14:28.602Z,6.1
2015-12-13T12:15:28.543Z,6.1
2015-12-13T12:16:28.482Z,6.1
2015-12-13T12:17:28.439Z,6
2015-12-13T12:18:28.378Z,6
2015-12-13T12:19:28.316Z,6
2015-12-13T12:20:28.256Z,6
2015-12-13T12:21:28.212Z,6
2015-12-13T12:22:28.153Z,6.1
2015-12-13T12:23:28.092Z,6.2
2015-12-13T12:24:28.033Z,6.5
2015-12-13T12:25:27.972Z,8.3
2015-12-13T12:26:27.928Z,9.5
2015-12-13T12:27:28.072Z,9.5
2015-12-13T12:28:27.825Z,9.1
2015-12-13T12:29:27.764Z,8.9
2015-12-13T12:30:27.706Z,9.1
2015-12-13T12:31:27.662Z,9.8
2015-12-13T12:32:27.602Z,10.5
2015-12-13T12:33:27.542Z,10.8
2015-12-13T12:34:27.498Z,10.9
2015-12-13T12:35:27.439Z,10.8
2015-12-13T12:36:27.394Z,10.3
2015-12-13T12:37:27.333Z,9.5
2015-12-13T12:38:27.290Z,8.8
2015-12-13T12:39:27.230Z,8.9
2015-12-13T12:40:27.171Z,9.7
2015-12-13T12:41:27.111Z,10.5
2015-12-13T12:42:27.067Z,10.9
2015-12-13T12:43:27.023Z,11.2
2015-12-13T12:44:26.963Z,11.1
2015-12-13T12:45:26.903Z,10.2
2015-12-13T12:46:26.859Z,9.3
2015-12-13T12:47:26.800Z,8.6
2015-12-13T12:48:26.739Z,8.2
2015-12-13T12:49:26.680Z,7.9
2015-12-13T12:50:26.636Z,7.8
2015-12-13T12:51:26.592Z,7.6
2015-12-13T12:52:26.516Z,7.5
2015-12-13T12:53:26.472Z,7.3
2015-12-13T12:54:26.413Z,7.2
2015-12-13T12:55:26.352Z,7.2
2015-12-13T12:56:26.293Z,7.1
2015-12-13T12:57:26.233Z,7
2015-12-13T12:58:26.236Z,6.8
2015-12-13T12:59:26.158Z,6.8
2015-12-13T13:00:26.066Z,6.8
2015-12-13T13:01:26.007Z,6.7
2015-12-13T13:02:25.947Z,6.7
2015-12-13T13:03:25.903Z,6.6
2015-12-13T13:04:25.843Z,6.6
2015-12-13T13:05:25.784Z,6.6
2015-12-13T13:06:25.724Z,6.6
2015-12-13T13:07:25.663Z,6.6
2015-12-13T13:08:25.619Z,6.6
2015-12-13T13:09:25.561Z,6.6
2015-12-13T13:10:25.641Z,6.6
2015-12-13T13:11:25.441Z,6.6
2015-12-13T13:12:25.381Z,6.5
2015-12-13T13:13:25.337Z,6.5
2015-12-13T13:14:25.278Z,6.5
2015-12-13T13:15:25.217Z,6.5
2015-12-13T13:16:25.158Z,6.5
2015-12-13T13:17:25.098Z,6.4
2015-12-13T13:18:25.102Z,6.5
2015-12-13T13:19:24.994Z,6.5
2015-12-13T13:20:24.935Z,6.5
2015-12-13T13:21:24.874Z,6.5
2015-12-13T13:22:24.816Z,6.5
2015-12-13T13:23:24.771Z,6.5
2015-12-13T13:24:24.711Z,6.4
2015-12-13T13:25:24.651Z,6.4
2015-12-13T13:26:24.591Z,6.4
2015-12-13T13:27:24.532Z,6.5
2015-12-13T13:28:24.472Z,6.6
2015-12-13T13:29:24.428Z,6.5
2015-12-13T13:30:24.368Z,6.5
2015-12-13T13:31:24.308Z,6.5
2015-12-13T13:32:24.249Z,6.5
2015-12-13T13:33:24.205Z,6.4
2015-12-13T13:34:24.130Z,6.4
2015-12-13T13:35:24.085Z,6.5
2015-12-13T13:36:24.023Z,6.5
2015-12-13T13:37:23.963Z,6.5
2015-12-13T13:38:23.904Z,6.5
2015-12-13T13:39:23.859Z,6.5
2015-12-13T13:40:23.799Z,6.5
2015-12-13T13:41:23.740Z,6.5
2015-12-13T13:42:23.680Z,6.5
2015-12-13T13:43:23.620Z,6.6
2015-12-13T13:44:23.576Z,6.5
2015-12-13T13:45:23.516Z,6.6
2015-12-13T13:46:23.456Z,6.6